Clarks Hill, Indiana
Current Conditions -  °F | °C
As of 8:35 PM on Monday 20 Oct 2014 (Local Time) from KFKR Reporting Station
Haze Haze  
Wind Chill: 58°   Ceiling: 4400
Heat Index: 58°   Visibility: 4mi
Dew Point: 49°   Wind: 5mph
Humidity: 72%   Direction: 270°W
Pressure: 29.93"   Gusts: NA
Location:  40.25°N, 86.73°W
Report Text: KFKR 210035Z AUTO 27004KT 4SM HZ BKN044 BKN050 OVC060 15/10 A2993 RMK AO2 LTG DSNT E T01460097
Loading
Personal Weather Stations






























Interactive Weather Map
Tropical Storm Tracking
New forecast layout! Learn more

10-Day Weather Forecast

Advertisements
Track Severe Weather on mobile